Briefing drone pour Saint-genest-lerpt

Rechercher une autre localisation

Conditions de vol :


Nous sommes le : Dimanche 19 septembre 2021
Il est 08:24 UTC (10:24 LT)

Lever de soleil : 04:59 UTC (06:59 LT)
Coucher de soleil : 18:13 UTC (20:13 LT)

Météo

L'essentiel des conditions de vol

VIGILANCE MÉTÉO FRANCE - Loire (42)
Pas de vigilances particulieres
CARTES DES FRONTS
METAR de LFMH
LFMH 190800Z AUTO 22007KT 190V250 9999 FEW054 BKN160 15/10 Q1016

Date d'émission: 19/09/2021
Heure d'émission: 08:00 UTC
Vent: 220° (variable du 190° au 250°) pour 7 KT (13 km/h)
Visibilité horizontale: > 10 km
Plafond :
- Peu de nuages à 5400ft (1646m)
- Nuages morcelés à 16000ft (4877m)
Température: 15 °C
Point de rosée: 10 °C
Humidité: 72%
Pression (QNH): 1016 hPa
TAF de LFMH
LFMH 161901Z 1619/1712 CNL

Conditions prévues :

Heure d'émission : Bulletin éffectué le 16 à 19:00 UTC
Prévision : Valide du 16 a 19:00 UTC au 17 a 12:00 UTC
Nuages : à 0ft (0 m)
WEBCAM POUR SAINT-GENEST-LERPT

Réglementation

Voler en sécurité

CARTES AERONAUTIQUE 1/500.000
CARTES VAC (LFMH)
SUP AIP




Chargement des AIP...
NOTAM (SAINT-GENEST-LERPT + Terrain à proximité / FIR )




Chargement des NOTAMS...
CONTACT PREFECTURE 42


Avertissement : Les données mises à disposition sont indicatives. Oxygène Drone ne pourra être tenu responsable de dégâts causés aux biens et aux personnes.